createdAt,value
2022-09-16T00:01:11.925Z,5.20
2022-09-16T00:03:40.432Z,4.93
2022-09-16T00:06:18.909Z,3.10
2022-09-16T00:08:47.139Z,3.23
2022-09-16T00:11:15.745Z,3.53
2022-09-16T00:13:43.969Z,4.43
2022-09-16T00:16:16.721Z,3.60
2022-09-16T00:18:44.783Z,1.80
2022-09-16T00:21:14.370Z,3.30
2022-09-16T00:23:42.435Z,3.20
2022-09-16T00:26:10.523Z,2.20
2022-09-16T00:28:38.570Z,3.10
2022-09-16T00:31:06.959Z,2.63
2022-09-16T00:33:35.023Z,1.93
2022-09-16T00:36:07.881Z,2.67
2022-09-16T00:38:37.226Z,3.20
2022-09-16T00:41:06.116Z,6.43
2022-09-16T00:43:51.914Z,4.27
2022-09-16T00:46:24.047Z,3.20
2022-09-16T00:48:52.315Z,4.00
2022-09-16T00:51:21.112Z,5.73
2022-09-16T00:53:56.943Z,4.93
2022-09-16T00:56:27.158Z,3.37
2022-09-16T00:59:03.242Z,2.13
2022-09-16T01:01:31.948Z,4.63
2022-09-16T01:04:04.208Z,4.07
2022-09-16T01:06:33.336Z,8.30
2022-09-16T01:09:03.590Z,3.73
2022-09-16T01:11:31.856Z,4.97
2022-09-16T01:14:20.423Z,3.57
2022-09-16T01:16:58.251Z,4.60
2022-09-16T01:19:46.552Z,3.87
2022-09-16T01:22:29.010Z,3.17
2022-09-16T01:25:05.128Z,4.30
2022-09-16T01:28:18.969Z,5.07
2022-09-16T01:31:04.176Z,3.70
2022-09-16T01:33:42.088Z,2.67
2022-09-16T01:36:26.667Z,4.97
2022-09-16T01:39:08.063Z,2.80
2022-09-16T01:41:46.273Z,3.87
2022-09-16T01:44:26.818Z,2.93
2022-09-16T01:47:03.572Z,4.37
2022-09-16T01:49:41.237Z,3.67
2022-09-16T01:52:21.348Z,3.00
2022-09-16T01:54:55.742Z,5.53
2022-09-16T01:57:29.162Z,2.50
2022-09-16T02:00:09.133Z,4.03
2022-09-16T02:02:42.910Z,3.40
2022-09-16T02:05:14.061Z,3.60
2022-09-16T02:07:46.194Z,5.53
2022-09-16T02:10:19.525Z,4.20
2022-09-16T02:12:50.157Z,3.90
2022-09-16T02:15:22.321Z,4.27
2022-09-16T02:17:57.599Z,5.90
2022-09-16T02:20:29.212Z,2.63
2022-09-16T02:23:01.236Z,4.33
2022-09-16T02:25:32.807Z,4.53
2022-09-16T02:28:06.854Z,4.27
2022-09-16T02:30:36.745Z,4.57
2022-09-16T02:33:09.656Z,3.87
2022-09-16T02:35:39.829Z,4.03
2022-09-16T02:38:14.115Z,5.77
2022-09-16T02:40:48.874Z,5.37
2022-09-16T02:43:17.525Z,4.67
2022-09-16T02:45:53.838Z,4.67
2022-09-16T02:48:32.150Z,4.43
2022-09-16T02:51:10.933Z,4.43
2022-09-16T02:53:48.015Z,2.70
2022-09-16T02:56:23.365Z,5.30
2022-09-16T02:58:51.667Z,5.20
2022-09-16T03:01:21.398Z,3.43
2022-09-16T03:03:51.055Z,4.50
2022-09-16T03:06:25.012Z,2.80
2022-09-16T03:08:55.365Z,3.33
2022-09-16T03:11:55.106Z,3.97
2022-09-16T03:14:49.729Z,3.70
2022-09-16T03:17:31.128Z,3.63
2022-09-16T03:20:11.961Z,2.67
2022-09-16T03:22:51.357Z,3.10
2022-09-16T03:25:35.205Z,4.33
2022-09-16T03:28:10.649Z,2.37
2022-09-16T03:30:44.687Z,2.37
2022-09-16T03:33:23.089Z,2.20
2022-09-16T03:35:57.501Z,5.13
2022-09-16T03:38:26.025Z,2.23
2022-09-16T03:40:54.590Z,2.73
2022-09-16T03:43:22.637Z,3.80
2022-09-16T03:45:52.382Z,4.83
2022-09-16T03:48:20.604Z,4.13
2022-09-16T03:50:48.649Z,5.13
2022-09-16T03:53:18.026Z,4.13
2022-09-16T03:55:46.646Z,4.30
2022-09-16T03:58:14.645Z,2.87
2022-09-16T04:00:42.648Z,5.53
2022-09-16T04:03:10.642Z,3.90
2022-09-16T04:05:38.637Z,4.80
2022-09-16T04:08:06.609Z,4.37
2022-09-16T04:10:35.994Z,2.93
2022-09-16T04:13:04.257Z,7.77
2022-09-16T04:15:34.910Z,5.70
2022-09-16T04:18:03.156Z,4.10
2022-09-16T04:20:31.159Z,5.23
2022-09-16T04:22:59.141Z,7.20
2022-09-16T04:25:27.211Z,5.37
2022-09-16T04:27:57.202Z,3.37
2022-09-16T04:30:25.268Z,4.83
2022-09-16T04:32:54.707Z,4.37
2022-09-16T04:35:23.535Z,2.97
2022-09-16T04:37:51.589Z,4.10
2022-09-16T04:40:19.679Z,3.87
2022-09-16T04:42:50.318Z,4.33
2022-09-16T04:45:20.018Z,4.57
2022-09-16T04:47:48.054Z,3.30
2022-09-16T04:50:16.103Z,5.67
2022-09-16T04:52:44.299Z,6.57
2022-09-16T04:55:12.306Z,4.07
2022-09-16T04:57:40.289Z,6.00
2022-09-16T05:00:09.840Z,7.57
2022-09-16T05:02:39.170Z,4.80
2022-09-16T05:05:08.198Z,5.33
2022-09-16T05:07:36.171Z,4.83
2022-09-16T05:10:04.362Z,3.40
2022-09-16T05:12:32.471Z,2.57
2022-09-16T05:15:00.508Z,3.90
2022-09-16T05:17:49.733Z,5.13
2022-09-16T05:20:20.363Z,4.37
2022-09-16T05:22:51.118Z,3.60
2022-09-16T05:25:19.471Z,5.53
2022-09-16T05:27:47.464Z,7.00
2022-09-16T05:30:17.290Z,5.10
2022-09-16T05:32:45.302Z,6.67
2022-09-16T05:35:13.312Z,8.73
2022-09-16T05:37:42.652Z,6.73
2022-09-16T05:40:10.879Z,4.17
2022-09-16T05:42:38.901Z,2.87
2022-09-16T05:45:08.098Z,5.63
2022-09-16T05:47:36.110Z,3.73
2022-09-16T05:50:04.197Z,5.23
2022-09-16T05:52:32.198Z,3.77
2022-09-16T05:55:01.558Z,4.73
2022-09-16T05:57:31.810Z,7.33
2022-09-16T06:00:02.689Z,4.70
2022-09-16T06:02:38.166Z,3.83
2022-09-16T06:05:06.653Z,6.30
2022-09-16T06:07:34.645Z,6.73
2022-09-16T06:10:04.134Z,6.77
2022-09-16T06:12:32.111Z,6.57
2022-09-16T06:15:00.537Z,6.13
2022-09-16T06:17:28.572Z,4.40
2022-09-16T06:19:56.532Z,5.13
2022-09-16T06:22:24.769Z,3.83
2022-09-16T06:24:53.042Z,3.93
2022-09-16T06:27:22.922Z,6.03
2022-09-16T06:29:50.874Z,4.33
2022-09-16T06:32:18.870Z,4.67
2022-09-16T06:34:46.849Z,4.87
2022-09-16T06:37:14.894Z,5.10
2022-09-16T06:39:42.974Z,4.37
2022-09-16T06:42:10.972Z,3.93
2022-09-16T06:44:43.472Z,7.03
2022-09-16T06:47:11.558Z,7.80
2022-09-16T06:49:39.529Z,8.37
2022-09-16T06:52:09.382Z,4.93
2022-09-16T06:54:37.385Z,2.97
2022-09-16T06:57:11.395Z,7.57
2022-09-16T06:59:40.245Z,4.70
2022-09-16T07:02:10.999Z,7.20
2022-09-16T07:04:39.363Z,7.43
2022-09-16T07:07:10.106Z,5.27
2022-09-16T07:09:38.678Z,9.03
2022-09-16T07:12:07.886Z,6.90
2022-09-16T07:14:36.069Z,9.63
2022-09-16T07:17:04.470Z,5.33
2022-09-16T07:19:33.914Z,6.37
2022-09-16T07:22:02.051Z,4.30
2022-09-16T07:24:30.083Z,5.93
2022-09-16T07:26:58.055Z,5.20
2022-09-16T07:29:26.106Z,5.80
2022-09-16T07:31:54.206Z,8.40
2022-09-16T07:34:22.317Z,5.50
2022-09-16T07:36:51.694Z,5.07
2022-09-16T07:39:21.089Z,6.27
2022-09-16T07:41:49.751Z,6.73
2022-09-16T07:44:19.684Z,7.23
2022-09-16T07:46:48.097Z,3.50
2022-09-16T07:49:17.097Z,4.60
2022-09-16T07:51:45.552Z,4.70
2022-09-16T07:54:17.317Z,6.30
2022-09-16T07:56:46.128Z,4.73
2022-09-16T07:59:18.819Z,6.47
2022-09-16T08:01:48.242Z,4.27
2022-09-16T08:04:16.994Z,5.57
2022-09-16T08:06:44.988Z,5.83
2022-09-16T08:09:37.125Z,5.40
2022-09-16T08:12:05.609Z,5.00
2022-09-16T08:14:33.831Z,7.60
2022-09-16T08:17:03.378Z,6.37
2022-09-16T08:19:31.406Z,5.30
2022-09-16T08:21:59.397Z,5.90
2022-09-16T08:24:28.738Z,5.70
2022-09-16T08:29:29.775Z,4.73
2022-09-16T08:31:57.851Z,5.07
2022-09-16T08:34:26.022Z,9.23
2022-09-16T08:36:54.122Z,4.60
2022-09-16T08:39:22.546Z,6.87
2022-09-16T08:42:08.942Z,3.83
2022-09-16T08:44:44.573Z,4.77
2022-09-16T08:47:26.212Z,5.00
2022-09-16T08:49:54.610Z,6.73
2022-09-16T08:52:31.907Z,6.27
2022-09-16T08:55:03.223Z,7.10
2022-09-16T08:57:39.479Z,6.83
2022-09-16T09:00:14.331Z,6.80
2022-09-16T09:02:48.831Z,6.20
2022-09-16T09:05:19.585Z,7.43
2022-09-16T09:07:55.801Z,4.80
2022-09-16T09:10:29.850Z,5.60
2022-09-16T09:13:10.244Z,5.27
2022-09-16T09:15:43.254Z,6.23
2022-09-16T09:18:21.298Z,6.73
2022-09-16T09:20:57.902Z,4.57
2022-09-16T09:23:45.176Z,3.97
2022-09-16T09:26:20.930Z,4.50
2022-09-16T09:29:04.442Z,5.70
2022-09-16T09:31:42.396Z,5.53
2022-09-16T09:34:20.652Z,4.97
2022-09-16T09:37:00.672Z,7.53
2022-09-16T09:39:41.266Z,6.00
2022-09-16T09:42:17.722Z,4.50
2022-09-16T09:45:01.345Z,4.17
2022-09-16T09:47:35.070Z,5.70
2022-09-16T09:50:13.177Z,4.87
2022-09-16T09:52:47.801Z,4.20
2022-09-16T09:55:18.411Z,4.20
2022-09-16T09:58:00.680Z,5.83
2022-09-16T10:00:30.147Z,5.07
2022-09-16T10:03:06.103Z,5.03
2022-09-16T10:05:34.597Z,5.30
2022-09-16T10:08:10.018Z,2.87
2022-09-16T10:10:48.711Z,6.57
2022-09-16T10:13:17.906Z,4.47
2022-09-16T10:15:52.021Z,5.87
2022-09-16T10:18:29.656Z,4.60
2022-09-16T10:21:03.242Z,7.17
2022-09-16T10:23:31.913Z,5.50
2022-09-16T10:26:08.994Z,4.70
2022-09-16T10:28:37.011Z,4.17
2022-09-16T10:31:08.842Z,3.83
2022-09-16T10:33:41.925Z,5.97
2022-09-16T10:36:12.122Z,4.67
2022-09-16T10:38:42.099Z,3.63
2022-09-16T10:41:15.845Z,6.53
2022-09-16T10:43:50.939Z,4.60
2022-09-16T10:46:21.063Z,5.87
2022-09-16T10:48:51.869Z,7.43
2022-09-16T10:51:25.747Z,3.67
2022-09-16T10:53:55.868Z,3.37
2022-09-16T10:56:29.278Z,6.80
2022-09-16T10:59:05.878Z,4.60
2022-09-16T11:01:47.639Z,3.70
2022-09-16T11:04:44.361Z,4.93
2022-09-16T11:07:24.143Z,5.90
2022-09-16T11:10:03.794Z,6.03
2022-09-16T11:13:16.366Z,6.17
2022-09-16T11:16:00.424Z,8.07
2022-09-16T11:18:43.772Z,5.73
2022-09-16T11:21:26.342Z,4.40
2022-09-16T11:24:10.387Z,3.90
2022-09-16T11:26:45.655Z,3.70
2022-09-16T11:29:40.742Z,5.97
2022-09-16T11:32:17.947Z,5.03
2022-09-16T11:34:59.591Z,6.13
2022-09-16T11:37:32.819Z,3.73
2022-09-16T11:40:16.784Z,6.03
2022-09-16T11:42:49.201Z,8.10
2022-09-16T11:45:31.056Z,8.17
2022-09-16T11:48:22.279Z,5.27
2022-09-16T11:51:01.001Z,6.00
2022-09-16T11:53:58.539Z,5.17
2022-09-16T11:56:37.238Z,8.23
2022-09-16T11:59:14.133Z,8.57
2022-09-16T12:01:45.572Z,6.30
2022-09-16T12:04:21.801Z,6.73
2022-09-16T12:06:57.213Z,5.90
2022-09-16T12:09:32.682Z,9.13
2022-09-16T12:12:12.052Z,6.30
2022-09-16T12:14:43.754Z,6.37
2022-09-16T12:17:17.192Z,5.60
2022-09-16T12:19:50.235Z,6.73
2022-09-16T12:22:23.909Z,5.93
2022-09-16T12:24:58.874Z,5.70
2022-09-16T12:27:38.554Z,6.83
2022-09-16T12:30:13.978Z,3.37
2022-09-16T12:32:51.650Z,6.57
2022-09-16T12:35:25.337Z,7.37
2022-09-16T12:37:57.494Z,4.87
2022-09-16T12:40:29.019Z,4.83
2022-09-16T12:43:21.877Z,6.07
2022-09-16T12:46:28.274Z,6.03
2022-09-16T12:49:22.172Z,6.53
2022-09-16T12:52:13.313Z,6.80
2022-09-16T12:55:23.600Z,8.37
2022-09-16T12:58:08.678Z,5.53
2022-09-16T13:00:42.614Z,6.90
2022-09-16T13:03:16.158Z,7.73
2022-09-16T13:05:47.502Z,6.10
2022-09-16T13:08:23.239Z,6.90
2022-09-16T13:11:28.395Z,8.60
2022-09-16T13:13:51.114Z,7.23
2022-09-16T13:16:33.293Z,6.20
2022-09-16T13:19:36.717Z,8.00
2022-09-16T13:22:16.274Z,6.53
2022-09-16T13:24:47.710Z,7.40
2022-09-16T13:27:34.484Z,8.30
2022-09-16T13:30:26.865Z,9.07
2022-09-16T13:33:04.491Z,9.27
2022-09-16T13:35:41.711Z,6.80
2022-09-16T13:38:37.409Z,7.03
2022-09-16T13:41:06.378Z,6.97
2022-09-16T13:43:38.171Z,7.17
2022-09-16T13:46:09.296Z,7.63
2022-09-16T13:48:42.699Z,5.07
2022-09-16T13:51:18.452Z,7.03
2022-09-16T13:53:49.235Z,5.57
2022-09-16T13:56:38.831Z,7.73
2022-09-16T13:59:21.730Z,8.47
2022-09-16T14:02:00.769Z,8.23
2022-09-16T14:04:42.262Z,6.73
2022-09-16T14:07:23.676Z,5.57
2022-09-16T14:10:00.435Z,6.30
2022-09-16T14:12:38.979Z,6.33
2022-09-16T14:15:09.651Z,7.30
2022-09-16T14:17:42.144Z,4.40
2022-09-16T14:20:17.193Z,8.13
2022-09-16T14:22:45.957Z,7.00
2022-09-16T14:25:29.940Z,7.47
2022-09-16T14:28:18.861Z,7.10
2022-09-16T14:30:50.538Z,6.60
2022-09-16T14:33:22.202Z,7.50
2022-09-16T14:35:50.890Z,8.77
2022-09-16T14:38:43.751Z,7.23
2022-09-16T14:41:11.549Z,7.63
2022-09-16T14:43:40.195Z,11.23
2022-09-16T14:46:09.654Z,8.03
2022-09-16T14:48:41.743Z,7.93
2022-09-16T14:51:16.742Z,9.00
2022-09-16T14:54:11.616Z,8.43
2022-09-16T14:56:40.704Z,5.47
2022-09-16T14:59:13.069Z,9.33
2022-09-16T15:01:43.310Z,7.87
2022-09-16T15:04:18.466Z,8.00
2022-09-16T15:06:52.737Z,25.60
2022-09-16T15:09:26.814Z,4.97
2022-09-16T15:11:58.406Z,8.23
2022-09-16T15:14:27.680Z,10.53
2022-09-16T15:17:00.540Z,7.20
2022-09-16T15:19:33.717Z,4.27
2022-09-16T15:22:02.145Z,8.27
2022-09-16T15:24:33.709Z,8.33
2022-09-16T15:27:02.546Z,6.43
2022-09-16T15:29:34.077Z,8.40
2022-09-16T15:32:18.065Z,6.83
2022-09-16T15:34:46.467Z,4.67
2022-09-16T15:37:32.021Z,6.93
2022-09-16T15:40:11.056Z,4.27
2022-09-16T15:42:39.542Z,5.33
2022-09-16T15:45:17.737Z,6.67
2022-09-16T15:47:58.240Z,5.90
2022-09-16T15:50:30.033Z,6.93
2022-09-16T15:53:02.685Z,5.03
2022-09-16T15:55:36.669Z,9.03
2022-09-16T15:58:09.122Z,10.20
2022-09-16T16:01:00.565Z,8.70
2022-09-16T16:03:33.635Z,6.80
2022-09-16T16:06:04.908Z,7.93
2022-09-16T16:08:42.237Z,9.17
2022-09-16T16:11:12.360Z,6.87
2022-09-16T16:13:40.411Z,11.10
2022-09-16T16:16:09.509Z,11.93
2022-09-16T16:18:39.787Z,7.23
2022-09-16T16:21:09.290Z,10.10
2022-09-16T16:23:37.941Z,9.50
2022-09-16T16:26:06.946Z,10.97
2022-09-16T16:28:35.996Z,8.73
2022-09-16T16:31:12.128Z,9.07
2022-09-16T16:33:46.104Z,8.27
2022-09-16T16:36:15.773Z,9.53
2022-09-16T16:38:45.493Z,5.93
2022-09-16T16:41:13.977Z,6.37
2022-09-16T16:43:42.066Z,10.00
2022-09-16T16:46:10.139Z,9.10
2022-09-16T16:48:39.116Z,8.97
2022-09-16T16:51:11.262Z,6.07
2022-09-16T16:53:39.944Z,7.93
2022-09-16T16:56:14.799Z,5.60
2022-09-16T16:58:43.987Z,6.67
2022-09-16T17:01:13.896Z,6.33
2022-09-16T17:03:42.550Z,8.60
2022-09-16T17:06:12.498Z,5.37
2022-09-16T17:08:40.481Z,8.57
2022-09-16T17:11:10.185Z,7.83
2022-09-16T17:13:38.972Z,8.27
2022-09-16T17:16:07.822Z,7.73
2022-09-16T17:18:36.426Z,8.73
2022-09-16T17:21:06.342Z,6.57
2022-09-16T17:23:36.053Z,7.27
2022-09-16T17:26:04.862Z,7.30
2022-09-16T17:28:33.494Z,6.43
2022-09-16T17:31:01.616Z,7.10
2022-09-16T17:33:30.968Z,4.97
2022-09-16T17:36:02.938Z,13.40
2022-09-16T17:38:31.209Z,6.83
2022-09-16T17:41:04.903Z,8.03
2022-09-16T17:43:33.806Z,9.47
2022-09-16T17:46:02.376Z,7.40
2022-09-16T17:48:30.973Z,9.80
2022-09-16T17:50:59.362Z,7.63
2022-09-16T17:53:27.481Z,6.77
2022-09-16T17:56:05.161Z,3.90
2022-09-16T17:58:34.502Z,9.17
2022-09-16T18:01:07.977Z,8.47
2022-09-16T18:03:36.577Z,5.97
2022-09-16T18:06:06.618Z,5.73
2022-09-16T18:08:34.680Z,6.27
2022-09-16T18:11:04.987Z,8.97
2022-09-16T18:13:33.011Z,4.90
2022-09-16T18:16:07.054Z,6.07
2022-09-16T18:18:36.648Z,6.87
2022-09-16T18:21:06.410Z,7.33
2022-09-16T18:23:34.465Z,4.90
2022-09-16T18:26:07.091Z,5.97
2022-09-16T18:28:58.176Z,8.13
2022-09-16T18:31:26.152Z,6.80
2022-09-16T18:33:55.458Z,8.13
2022-09-16T18:36:25.417Z,6.60
2022-09-16T18:38:54.650Z,6.30
2022-09-16T18:41:26.053Z,9.13
2022-09-16T18:43:55.893Z,6.37
2022-09-16T18:46:26.840Z,6.70
2022-09-16T18:48:55.517Z,5.77
2022-09-16T18:51:25.431Z,5.07
2022-09-16T18:53:55.570Z,6.23
2022-09-16T18:56:26.442Z,8.67
2022-09-16T18:59:20.013Z,4.87
2022-09-16T19:01:44.695Z,7.53
2022-09-16T19:04:13.887Z,6.53
2022-09-16T19:06:43.445Z,7.90
2022-09-16T19:09:13.374Z,5.67
2022-09-16T19:11:43.369Z,6.30
2022-09-16T19:14:14.075Z,7.33
2022-09-16T19:16:44.100Z,5.43
2022-09-16T19:19:13.822Z,7.87
2022-09-16T19:21:42.349Z,6.40
2022-09-16T19:24:15.057Z,6.63
2022-09-16T19:26:45.603Z,7.47
2022-09-16T19:29:15.082Z,4.53
2022-09-16T19:31:45.441Z,7.73
2022-09-16T19:34:14.458Z,8.37
2022-09-16T19:36:43.449Z,7.50
2022-09-16T19:39:12.991Z,5.73
2022-09-16T19:41:42.902Z,5.70
2022-09-16T19:44:14.489Z,8.30
2022-09-16T19:46:43.427Z,6.23
2022-09-16T19:49:15.876Z,4.47
2022-09-16T19:51:44.105Z,6.33
2022-09-16T19:54:12.461Z,8.83
2022-09-16T19:56:40.993Z,7.60
2022-09-16T19:59:09.117Z,7.30
2022-09-16T20:01:39.013Z,5.17
2022-09-16T20:04:09.059Z,4.47
2022-09-16T20:06:40.523Z,5.97
2022-09-16T20:09:11.427Z,10.47
2022-09-16T20:11:41.229Z,7.70
2022-09-16T20:14:13.523Z,5.93
2022-09-16T20:16:43.891Z,7.73
2022-09-16T20:19:13.768Z,6.10
2022-09-16T20:21:42.820Z,8.73
2022-09-16T20:24:15.310Z,8.73
2022-09-16T20:26:43.450Z,7.50
2022-09-16T20:29:11.510Z,7.93
2022-09-16T20:31:39.688Z,7.17
2022-09-16T20:34:09.191Z,9.00
2022-09-16T20:36:39.309Z,11.00
2022-09-16T20:39:08.882Z,9.43
2022-09-16T20:41:38.370Z,7.13
2022-09-16T20:44:06.978Z,11.73
2022-09-16T20:46:36.398Z,9.43
2022-09-16T20:49:09.368Z,10.20
2022-09-16T20:51:38.918Z,8.37
2022-09-16T20:54:09.073Z,9.50
2022-09-16T20:56:39.383Z,10.83
2022-09-16T20:59:08.521Z,9.93
2022-09-16T21:01:38.157Z,15.87
2022-09-16T21:04:07.488Z,12.33
2022-09-16T21:06:36.727Z,12.40
2022-09-16T21:09:08.776Z,13.23
2022-09-16T21:11:37.336Z,10.93
2022-09-16T21:14:07.599Z,12.67
2022-09-16T21:16:37.163Z,14.23
2022-09-16T21:19:09.179Z,12.87
2022-09-16T21:21:39.557Z,14.10
2022-09-16T21:24:09.814Z,16.53
2022-09-16T21:26:39.241Z,14.57
2022-09-16T21:29:09.846Z,13.80
2022-09-16T21:31:39.149Z,15.90
2022-09-16T21:34:08.254Z,12.90
2022-09-16T21:36:37.638Z,12.97
2022-09-16T21:39:05.951Z,13.70
2022-09-16T21:41:35.379Z,11.73
2022-09-16T21:44:03.879Z,14.00
2022-09-16T21:46:33.476Z,19.43
2022-09-16T21:49:03.200Z,16.10
2022-09-16T21:51:35.227Z,16.03
2022-09-16T21:54:04.193Z,22.97
2022-09-16T21:56:32.858Z,15.37
2022-09-16T21:59:02.186Z,13.07
2022-09-16T22:01:31.656Z,13.27
2022-09-16T22:04:02.122Z,12.63
2022-09-16T22:06:30.643Z,14.07
2022-09-16T22:09:00.885Z,11.67
2022-09-16T22:11:30.586Z,10.80
2022-09-16T22:14:00.561Z,16.20
2022-09-16T22:16:31.887Z,15.00
2022-09-16T22:19:01.667Z,11.90
2022-09-16T22:21:32.358Z,12.33
2022-09-16T22:24:01.911Z,11.97
2022-09-16T22:26:31.200Z,14.77
2022-09-16T22:29:00.622Z,13.87
2022-09-16T22:31:32.725Z,14.80
2022-09-16T22:34:02.507Z,18.23
2022-09-16T22:36:32.471Z,16.63
2022-09-16T22:39:04.041Z,15.90
2022-09-16T22:41:32.503Z,17.17
2022-09-16T22:44:00.826Z,19.77
2022-09-16T22:46:32.536Z,19.57
2022-09-16T22:49:01.641Z,17.93
2022-09-16T22:51:30.041Z,21.30
2022-09-16T22:53:58.260Z,18.27
2022-09-16T22:56:31.695Z,20.53
2022-09-16T22:59:00.870Z,18.80
2022-09-16T23:01:32.863Z,17.10
2022-09-16T23:04:02.945Z,16.40
2022-09-16T23:06:32.550Z,17.53
2022-09-16T23:09:01.356Z,14.87
2022-09-16T23:11:31.231Z,12.23
2022-09-16T23:14:00.187Z,17.23
2022-09-16T23:16:31.681Z,9.60
2022-09-16T23:19:02.007Z,9.83
2022-09-16T23:21:30.464Z,13.13
2022-09-16T23:24:01.442Z,11.73
2022-09-16T23:26:31.970Z,15.07
2022-09-16T23:29:01.558Z,10.13
2022-09-16T23:31:32.954Z,10.83
2022-09-16T23:34:01.811Z,12.67
2022-09-16T23:36:29.926Z,11.07
2022-09-16T23:39:01.182Z,15.13
2022-09-16T23:41:29.526Z,14.80
2022-09-16T23:43:57.833Z,11.17
2022-09-16T23:46:28.780Z,13.27
2022-09-16T23:48:58.653Z,13.53
2022-09-16T23:51:28.992Z,15.37
2022-09-16T23:53:58.136Z,11.90
2022-09-16T23:56:27.229Z,14.63
2022-09-16T23:59:00.603Z,16.60
